createdAt,value
2017-11-04T00:00:03.564Z,9.24
2017-11-04T00:02:31.062Z,9.22
2017-11-04T00:04:58.544Z,9.22
2017-11-04T00:07:26.011Z,9.26
2017-11-04T00:09:53.482Z,9.24
2017-11-04T00:12:20.952Z,9.24
2017-11-04T00:14:48.424Z,9.25
2017-11-04T00:17:15.924Z,9.29
2017-11-04T00:19:43.392Z,9.33
2017-11-04T00:22:10.873Z,9.39
2017-11-04T00:24:38.402Z,9.41
2017-11-04T00:27:05.932Z,9.43
2017-11-04T00:29:33.408Z,9.45
2017-11-04T00:32:00.918Z,9.50
2017-11-04T00:34:28.402Z,9.51
2017-11-04T00:36:55.912Z,9.54
2017-11-04T00:39:23.571Z,9.56
2017-11-04T00:41:51.029Z,9.60
2017-11-04T00:44:18.504Z,9.59
2017-11-04T00:46:45.999Z,9.61
2017-11-04T00:49:13.456Z,9.65
2017-11-04T00:51:40.963Z,9.63
2017-11-04T00:54:08.426Z,9.64
2017-11-04T00:56:35.951Z,9.64
2017-11-04T00:59:04.271Z,9.67
2017-11-04T01:01:31.745Z,9.67
2017-11-04T01:03:59.196Z,9.68
2017-11-04T01:06:26.707Z,9.69
2017-11-04T01:08:54.203Z,9.69
2017-11-04T01:11:21.713Z,9.69
2017-11-04T01:13:49.179Z,9.63
2017-11-04T01:16:16.649Z,9.65
2017-11-04T01:18:44.117Z,9.64
2017-11-04T01:21:11.597Z,9.62
2017-11-04T01:23:39.059Z,9.58
2017-11-04T01:26:06.681Z,9.59
2017-11-04T01:28:34.185Z,9.63
2017-11-04T01:31:01.674Z,9.62
2017-11-04T01:33:29.947Z,9.66
2017-11-04T01:35:57.432Z,9.64
2017-11-04T01:38:24.924Z,9.59
2017-11-04T01:40:52.447Z,9.55
2017-11-04T01:43:19.904Z,9.53
2017-11-04T01:45:47.469Z,9.51
2017-11-04T01:48:14.371Z,9.52
2017-11-04T01:50:42.805Z,9.52
2017-11-04T01:53:17.293Z,9.49
2017-11-04T01:55:44.762Z,9.49
2017-11-04T01:58:12.275Z,9.48
2017-11-04T02:00:39.738Z,9.48
2017-11-04T02:03:07.220Z,9.52
2017-11-04T02:05:34.675Z,9.53
2017-11-04T02:08:02.201Z,9.46
2017-11-04T02:10:29.673Z,9.48
2017-11-04T02:12:57.168Z,9.43
2017-11-04T02:15:24.631Z,9.41
2017-11-04T02:17:52.155Z,9.45
2017-11-04T02:20:19.650Z,9.48
2017-11-04T02:22:47.159Z,9.47
2017-11-04T02:25:14.657Z,9.43
2017-11-04T02:27:42.203Z,9.41
2017-11-04T02:30:09.681Z,9.43
2017-11-04T02:32:37.190Z,9.39
2017-11-04T02:35:04.645Z,9.34
2017-11-04T02:37:32.107Z,9.35
2017-11-04T02:39:59.555Z,9.35
2017-11-04T02:42:27.390Z,9.31
2017-11-04T02:44:54.838Z,9.27
2017-11-04T02:47:22.299Z,9.29
2017-11-04T02:49:49.802Z,9.31
2017-11-04T02:52:17.314Z,9.30
2017-11-04T02:54:44.809Z,9.26
2017-11-04T02:57:12.327Z,9.28
2017-11-04T02:59:39.788Z,9.25
2017-11-04T03:02:07.284Z,9.23
2017-11-04T03:04:34.756Z,9.24
2017-11-04T03:07:02.536Z,9.25
2017-11-04T03:09:31.301Z,9.26
2017-11-04T03:11:58.755Z,9.27
2017-11-04T03:14:26.251Z,9.28
2017-11-04T03:16:53.775Z,9.28
2017-11-04T03:19:21.700Z,9.27
2017-11-04T03:21:55.655Z,9.30
2017-11-04T03:24:24.630Z,9.27
2017-11-04T03:26:52.363Z,9.29
2017-11-04T03:29:19.878Z,9.32
2017-11-04T03:31:47.412Z,9.31
2017-11-04T03:34:14.878Z,9.28
2017-11-04T03:36:42.597Z,9.31
2017-11-04T03:39:10.088Z,9.33
2017-11-04T03:41:37.572Z,9.35
2017-11-04T03:44:05.071Z,9.34
2017-11-04T03:46:32.577Z,9.37
2017-11-04T03:49:00.056Z,9.36
2017-11-04T03:51:27.672Z,9.38
2017-11-04T03:53:55.134Z,9.38
2017-11-04T03:56:22.620Z,9.41
2017-11-04T03:58:50.964Z,9.38
2017-11-04T04:01:19.248Z,9.38
2017-11-04T04:03:46.707Z,9.39
2017-11-04T04:06:14.608Z,9.36
2017-11-04T04:08:42.225Z,9.34
2017-11-04T04:11:09.894Z,9.36
2017-11-04T04:13:38.064Z,9.35
2017-11-04T04:16:05.515Z,9.36
2017-11-04T04:18:33.058Z,9.32
2017-11-04T04:21:00.511Z,9.32
2017-11-04T04:23:28.473Z,9.32
2017-11-04T04:25:55.979Z,9.26
2017-11-04T04:28:23.503Z,9.28
2017-11-04T04:30:50.975Z,9.26
2017-11-04T04:33:18.457Z,9.26
2017-11-04T04:35:45.936Z,9.20
2017-11-04T04:38:13.407Z,9.21
2017-11-04T04:40:40.929Z,9.21
2017-11-04T04:43:08.432Z,9.20
2017-11-04T04:45:35.908Z,9.19
2017-11-04T04:48:03.385Z,9.20
2017-11-04T04:50:30.861Z,9.15
2017-11-04T04:52:58.399Z,9.11
2017-11-04T04:55:25.872Z,9.10
2017-11-04T04:57:53.337Z,9.07
2017-11-04T05:00:20.855Z,9.07
2017-11-04T05:02:48.355Z,9.05
2017-11-04T05:05:16.240Z,9.03
2017-11-04T05:07:43.714Z,9.03
2017-11-04T05:10:11.175Z,9.01
2017-11-04T05:12:38.724Z,8.97
2017-11-04T05:15:06.198Z,8.94
2017-11-04T05:17:33.674Z,9.00
2017-11-04T05:20:01.154Z,8.96
2017-11-04T05:22:28.923Z,8.96
2017-11-04T05:24:56.389Z,8.95
2017-11-04T05:27:23.865Z,8.95
2017-11-04T05:29:51.331Z,8.92
2017-11-04T05:32:18.783Z,8.88
2017-11-04T05:34:46.301Z,8.82
2017-11-04T05:37:13.772Z,8.81
2017-11-04T05:39:41.300Z,8.77
2017-11-04T05:42:08.779Z,8.79
2017-11-04T05:44:36.240Z,8.78
2017-11-04T05:47:03.713Z,8.75
2017-11-04T05:49:31.193Z,8.73
2017-11-04T05:51:59.596Z,8.72
2017-11-04T05:54:27.064Z,8.71
2017-11-04T05:56:54.569Z,8.70
2017-11-04T05:59:22.079Z,8.65
2017-11-04T06:01:49.531Z,8.66
2017-11-04T06:04:18.309Z,8.66
2017-11-04T06:06:45.777Z,8.63
2017-11-04T06:09:13.249Z,8.61
2017-11-04T06:11:40.706Z,8.60
2017-11-04T06:14:08.774Z,8.60
2017-11-04T06:16:36.238Z,8.59
2017-11-04T06:19:03.702Z,8.57
2017-11-04T06:21:31.171Z,8.59
2017-11-04T06:23:58.651Z,8.59
2017-11-04T06:26:26.137Z,8.57
2017-11-04T06:28:58.644Z,8.55
2017-11-04T06:31:26.238Z,8.59
2017-11-04T06:33:53.736Z,8.56
2017-11-04T06:36:21.298Z,8.55
2017-11-04T06:38:48.796Z,8.57
2017-11-04T06:41:16.321Z,8.51
2017-11-04T06:43:43.909Z,8.52
2017-11-04T06:46:11.435Z,8.54
2017-11-04T06:48:40.731Z,8.58
2017-11-04T06:51:08.347Z,8.60
2017-11-04T06:53:36.746Z,8.61
2017-11-04T06:56:04.269Z,8.62
2017-11-04T06:58:31.795Z,8.61
2017-11-04T07:00:59.329Z,8.64
2017-11-04T07:03:26.871Z,8.63
2017-11-04T07:05:54.407Z,8.65
2017-11-04T07:08:21.884Z,8.67
2017-11-04T07:10:49.428Z,8.69
2017-11-04T07:13:16.985Z,8.68
2017-11-04T07:15:44.444Z,8.72
2017-11-04T07:18:11.902Z,8.74
2017-11-04T07:20:39.472Z,8.79
2017-11-04T07:23:06.963Z,8.80
2017-11-04T07:25:34.452Z,8.79
2017-11-04T07:28:01.936Z,8.82
2017-11-04T07:30:29.412Z,8.84
2017-11-04T07:32:56.934Z,8.81
2017-11-04T07:35:24.808Z,8.82
2017-11-04T07:37:52.294Z,8.83
2017-11-04T07:40:19.762Z,8.82
2017-11-04T07:42:48.221Z,8.85
2017-11-04T07:45:15.724Z,8.87
2017-11-04T07:47:43.244Z,8.87
2017-11-04T07:50:10.739Z,8.91
2017-11-04T07:52:38.235Z,8.95
2017-11-04T07:55:05.713Z,9.00
2017-11-04T07:57:33.190Z,9.05
2017-11-04T08:00:00.706Z,9.10
2017-11-04T08:02:28.211Z,9.12
2017-11-04T08:04:55.711Z,9.20
2017-11-04T08:07:23.206Z,9.28
2017-11-04T08:09:50.714Z,9.28
2017-11-04T08:12:18.188Z,9.36
2017-11-04T08:14:45.674Z,9.38
2017-11-04T08:17:13.147Z,9.37
2017-11-04T08:19:41.368Z,9.44
2017-11-04T08:22:08.848Z,9.50
2017-11-04T08:24:36.314Z,9.56
2017-11-04T08:27:03.798Z,9.63
2017-11-04T08:29:31.290Z,9.77
2017-11-04T08:31:58.768Z,9.78
2017-11-04T08:34:26.267Z,9.83
2017-11-04T08:36:56.258Z,9.90
2017-11-04T08:39:23.793Z,9.98
2017-11-04T08:41:51.249Z,9.99
2017-11-04T08:44:18.725Z,10.05
2017-11-04T08:46:46.215Z,10.02
2017-11-04T08:49:13.793Z,10.10
2017-11-04T08:51:41.289Z,10.13
2017-11-04T08:54:08.778Z,10.20
2017-11-04T08:56:36.253Z,10.25
2017-11-04T08:59:03.762Z,10.28
2017-11-04T09:01:31.292Z,10.36
2017-11-04T09:03:58.777Z,10.51
2017-11-04T09:06:26.256Z,10.63
2017-11-04T09:08:54.353Z,10.76
2017-11-04T09:11:21.875Z,10.81
2017-11-04T09:13:49.346Z,10.91
2017-11-04T09:16:16.878Z,11.00
2017-11-04T09:18:44.403Z,11.04
2017-11-04T09:21:18.341Z,11.11
2017-11-04T09:23:45.796Z,11.18
2017-11-04T09:26:13.293Z,11.26
2017-11-04T09:28:40.755Z,11.27
2017-11-04T09:31:08.231Z,11.25
2017-11-04T09:33:35.710Z,11.26
2017-11-04T09:36:03.192Z,11.35
2017-11-04T09:38:30.668Z,11.46
2017-11-04T09:40:58.223Z,11.64
2017-11-04T09:43:25.772Z,11.77
2017-11-04T09:45:53.236Z,11.81
2017-11-04T09:48:20.729Z,11.82
2017-11-04T09:50:48.215Z,11.91
2017-11-04T09:53:15.724Z,12.02
2017-11-04T09:55:43.195Z,12.08
2017-11-04T09:58:11.530Z,12.15
2017-11-04T10:00:39.056Z,12.17
2017-11-04T10:03:06.624Z,12.24
2017-11-04T10:05:34.109Z,12.44
2017-11-04T10:08:01.600Z,12.51
2017-11-04T10:10:29.067Z,12.52
2017-11-04T10:12:56.564Z,12.54
2017-11-04T10:15:24.439Z,12.60
2017-11-04T10:17:51.992Z,12.70
2017-11-04T10:20:19.468Z,13.03
2017-11-04T10:22:46.966Z,13.38
2017-11-04T10:25:14.504Z,13.73
2017-11-04T10:27:42.009Z,14.09
2017-11-04T10:30:09.562Z,14.55
2017-11-04T10:32:37.276Z,15.05
2017-11-04T10:35:04.788Z,15.48
2017-11-04T10:37:32.416Z,16.34
2017-11-04T10:39:59.960Z,16.95
2017-11-04T10:42:39.105Z,17.53
2017-11-04T10:45:07.316Z,17.84
2017-11-04T10:47:35.754Z,17.87
2017-11-04T10:50:05.046Z,17.44
2017-11-04T10:52:32.551Z,17.28
2017-11-04T10:55:00.130Z,16.93
2017-11-04T10:57:27.673Z,17.26
2017-11-04T10:59:55.180Z,17.15
2017-11-04T11:02:22.720Z,17.00
2017-11-04T11:04:50.208Z,16.67
2017-11-04T11:07:17.716Z,16.60
2017-11-04T11:09:45.238Z,16.54
2017-11-04T11:12:12.782Z,16.96
2017-11-04T11:14:40.262Z,17.38
2017-11-04T11:17:07.818Z,17.44
2017-11-04T11:19:35.385Z,17.47
2017-11-04T11:22:02.958Z,17.28
2017-11-04T11:24:30.515Z,16.90
2017-11-04T11:26:58.058Z,16.51
2017-11-04T11:29:25.591Z,16.18
2017-11-04T11:31:53.153Z,15.97
2017-11-04T11:34:20.716Z,15.60
2017-11-04T11:36:48.215Z,15.16
2017-11-04T11:39:15.727Z,14.84
2017-11-04T11:41:43.219Z,14.73
2017-11-04T11:44:10.782Z,14.72
2017-11-04T11:46:38.305Z,14.91
2017-11-04T11:49:05.842Z,15.16
2017-11-04T11:51:33.352Z,15.34
2017-11-04T11:54:00.921Z,15.50
2017-11-04T11:56:28.443Z,15.37
2017-11-04T11:58:55.981Z,15.29
2017-11-04T12:01:23.557Z,15.26
2017-11-04T12:03:51.060Z,15.32
2017-11-04T12:06:18.586Z,15.24
2017-11-04T12:08:46.077Z,15.12
2017-11-04T12:11:13.606Z,15.13
2017-11-04T12:13:41.084Z,15.28
2017-11-04T12:16:08.573Z,15.25
2017-11-04T12:18:36.143Z,15.06
2017-11-04T12:21:03.661Z,15.08
2017-11-04T12:23:31.147Z,15.11
2017-11-04T12:25:58.659Z,15.33
2017-11-04T12:28:26.186Z,15.64
2017-11-04T12:30:53.747Z,15.87
2017-11-04T12:33:21.234Z,15.74
2017-11-04T12:35:48.756Z,15.63
2017-11-04T12:38:16.254Z,15.45
2017-11-04T12:40:43.759Z,15.55
2017-11-04T12:43:11.227Z,15.74
2017-11-04T12:45:38.732Z,15.65
2017-11-04T12:48:06.213Z,15.39
2017-11-04T12:50:33.732Z,15.18
2017-11-04T12:53:01.277Z,14.96
2017-11-04T12:55:28.777Z,14.79
2017-11-04T12:57:56.350Z,14.73
2017-11-04T13:00:23.882Z,14.65
2017-11-04T13:02:51.352Z,14.53
2017-11-04T13:05:18.890Z,14.51
2017-11-04T13:07:46.407Z,14.50
2017-11-04T13:10:14.004Z,14.47
2017-11-04T13:12:41.471Z,14.41
2017-11-04T13:15:08.982Z,14.27
2017-11-04T13:17:36.459Z,14.17
2017-11-04T13:20:03.978Z,14.13
2017-11-04T13:22:31.549Z,14.03
2017-11-04T13:24:59.055Z,13.95
2017-11-04T13:27:26.605Z,13.91
2017-11-04T13:29:54.185Z,13.87
2017-11-04T13:32:21.706Z,13.89
2017-11-04T13:34:49.195Z,13.88
2017-11-04T13:37:16.750Z,13.87
2017-11-04T13:39:44.297Z,13.84
2017-11-04T13:42:11.820Z,13.81
2017-11-04T13:44:39.343Z,13.88
2017-11-04T13:47:06.969Z,13.89
2017-11-04T13:49:34.655Z,13.92
2017-11-04T13:52:02.226Z,13.87
2017-11-04T13:54:29.779Z,13.89
2017-11-04T13:56:57.303Z,13.88
2017-11-04T13:59:24.791Z,13.91
2017-11-04T14:01:52.266Z,13.90
2017-11-04T14:04:19.849Z,13.89
2017-11-04T14:06:47.365Z,13.89
2017-11-04T14:09:14.990Z,13.92
2017-11-04T14:11:42.567Z,13.92
2017-11-04T14:14:10.129Z,13.94
2017-11-04T14:16:37.723Z,13.91
2017-11-04T14:19:05.226Z,13.89
2017-11-04T14:21:32.783Z,13.87
2017-11-04T14:24:00.250Z,13.87
2017-11-04T14:26:27.794Z,13.84
2017-11-04T14:28:55.301Z,13.80
2017-11-04T14:31:23.160Z,13.80
2017-11-04T14:33:51.189Z,13.73
2017-11-04T14:36:18.727Z,13.71
2017-11-04T14:38:46.271Z,13.71
2017-11-04T14:41:13.804Z,13.71
2017-11-04T14:43:41.329Z,13.67
2017-11-04T14:46:08.841Z,13.62
2017-11-04T14:48:36.563Z,13.59
2017-11-04T14:51:04.138Z,13.51
2017-11-04T14:53:31.667Z,13.48
2017-11-04T14:55:59.170Z,13.46
2017-11-04T14:58:26.683Z,13.41
2017-11-04T15:00:54.207Z,13.38
2017-11-04T15:03:21.780Z,13.40
2017-11-04T15:05:49.325Z,13.34
2017-11-04T15:08:16.839Z,13.31
2017-11-04T15:10:44.395Z,13.26
2017-11-04T15:13:13.459Z,13.27
2017-11-04T15:15:41.021Z,13.26
2017-11-04T15:18:08.538Z,13.22
2017-11-04T15:20:36.026Z,13.20
2017-11-04T15:23:03.532Z,13.14
2017-11-04T15:25:31.162Z,13.08
2017-11-04T15:27:58.674Z,13.08
2017-11-04T15:30:35.810Z,13.07
2017-11-04T15:33:03.436Z,13.04
2017-11-04T15:35:31.306Z,13.01
2017-11-04T15:37:58.926Z,12.98
2017-11-04T15:40:26.900Z,13.01
2017-11-04T15:42:54.471Z,13.02
2017-11-04T15:45:21.954Z,13.03
2017-11-04T15:47:49.517Z,13.04
2017-11-04T15:50:17.110Z,13.05
2017-11-04T15:52:44.971Z,13.02
2017-11-04T15:55:12.470Z,12.94
2017-11-04T15:57:40.008Z,12.87
2017-11-04T16:00:07.598Z,12.79
2017-11-04T16:02:35.096Z,12.80
2017-11-04T17:24:32.271Z,12.23
2017-11-04T17:26:59.898Z,12.27
2017-11-04T17:29:27.761Z,12.28
2017-11-04T17:31:55.481Z,12.27
2017-11-04T17:34:23.056Z,12.28
2017-11-04T17:36:50.528Z,12.28
2017-11-04T17:39:18.271Z,12.25
2017-11-04T17:41:45.830Z,12.26
2017-11-04T17:44:17.000Z,12.25
2017-11-04T17:46:44.715Z,12.23
2017-11-04T17:49:12.298Z,12.22
2017-11-04T17:51:41.081Z,12.23
2017-11-04T17:54:08.676Z,12.20
2017-11-04T17:56:36.425Z,12.20
2017-11-04T17:59:15.558Z,12.20
2017-11-04T18:01:46.130Z,12.21
2017-11-04T18:04:14.317Z,12.18
2017-11-04T18:06:41.988Z,12.16
2017-11-04T18:09:09.663Z,12.11
2017-11-04T18:11:37.143Z,12.10
2017-11-04T18:14:04.622Z,12.12
2017-11-04T18:16:32.097Z,12.07
2017-11-04T18:18:59.690Z,12.07
2017-11-04T18:21:27.186Z,12.07
2017-11-04T18:23:54.672Z,12.05
2017-11-04T18:26:22.182Z,12.03
2017-11-04T18:28:49.763Z,11.98
2017-11-04T18:31:17.246Z,12.00
2017-11-04T18:33:44.755Z,12.02
2017-11-04T18:36:12.226Z,12.01
2017-11-04T18:38:40.713Z,12.04
2017-11-04T18:41:08.252Z,12.07
2017-11-04T18:43:35.737Z,12.09
2017-11-04T18:46:03.219Z,12.08
2017-11-04T18:48:30.682Z,12.13
2017-11-04T18:50:58.298Z,12.15
2017-11-04T18:53:25.783Z,12.16
2017-11-04T18:55:53.388Z,12.14
2017-11-04T18:58:20.916Z,12.14
2017-11-04T19:00:48.427Z,12.13
2017-11-04T19:03:15.976Z,12.11
2017-11-04T19:05:44.379Z,12.10
2017-11-04T19:08:12.246Z,12.10
2017-11-04T19:10:40.639Z,12.06
2017-11-04T19:13:08.169Z,12.06
2017-11-04T19:15:36.739Z,12.09
2017-11-04T19:18:04.336Z,12.10
2017-11-04T19:20:36.846Z,12.10
2017-11-04T19:23:05.218Z,12.11
2017-11-04T19:25:35.526Z,12.13
2017-11-04T19:28:03.124Z,12.10
2017-11-04T19:30:30.976Z,12.07
2017-11-04T19:32:58.510Z,12.05
2017-11-04T19:35:32.645Z,12.03
2017-11-04T19:38:00.240Z,12.07
2017-11-04T19:40:27.699Z,12.05
2017-11-04T19:42:55.267Z,12.04
2017-11-04T19:45:25.940Z,11.99
2017-11-04T19:47:53.613Z,12.00
2017-11-04T19:50:21.235Z,12.01
2017-11-04T19:52:49.312Z,11.99
2017-11-04T19:55:16.870Z,11.94
2017-11-04T19:57:46.063Z,11.96
2017-11-04T20:00:13.689Z,11.97
2017-11-04T20:02:41.187Z,11.95
2017-11-04T20:05:08.743Z,11.95
2017-11-04T20:07:36.276Z,11.95
2017-11-04T20:10:03.782Z,11.96
2017-11-04T20:12:31.332Z,11.95
2017-11-04T20:14:58.872Z,11.99
2017-11-04T20:17:26.384Z,11.99
2017-11-04T20:19:53.933Z,11.98
2017-11-04T20:22:21.433Z,11.95
2017-11-04T20:24:54.590Z,11.95
2017-11-04T20:27:22.185Z,11.95
2017-11-04T20:29:50.040Z,11.96
2017-11-04T20:32:17.510Z,11.96
2017-11-04T20:34:44.992Z,11.96
2017-11-04T20:37:12.611Z,11.94
2017-11-04T20:39:40.110Z,11.92
2017-11-04T20:42:07.836Z,11.93
2017-11-04T20:44:35.383Z,11.92
2017-11-04T20:47:02.891Z,11.91
2017-11-04T20:49:32.411Z,11.88
2017-11-04T20:52:04.592Z,11.82
2017-11-04T20:54:37.976Z,11.83
2017-11-04T20:57:06.593Z,11.85
2017-11-04T20:59:34.448Z,11.84
2017-11-04T21:02:02.154Z,11.83
2017-11-04T21:04:29.798Z,11.86
2017-11-04T21:06:57.386Z,11.88
2017-11-04T21:09:24.977Z,11.84
2017-11-04T21:11:52.698Z,11.84
2017-11-04T21:14:21.380Z,11.87
2017-11-04T21:16:48.919Z,11.82
2017-11-04T21:19:16.468Z,11.83
2017-11-04T21:21:45.766Z,11.82
2017-11-04T21:24:14.013Z,11.80
2017-11-04T21:26:41.525Z,11.79
2017-11-04T21:29:09.920Z,11.76
2017-11-04T21:31:37.483Z,11.76
2017-11-04T21:34:05.159Z,11.77
2017-11-04T21:36:32.818Z,11.79
2017-11-04T21:39:00.397Z,11.78
2017-11-04T21:41:27.980Z,11.79
2017-11-04T21:43:55.536Z,11.79
2017-11-04T21:46:23.788Z,11.76
2017-11-04T21:48:51.489Z,11.78
2017-11-04T21:51:19.039Z,11.79
2017-11-04T21:53:46.883Z,11.78
2017-11-04T21:56:14.512Z,11.78
2017-11-04T21:58:42.570Z,11.78
2017-11-04T22:01:10.143Z,11.77
2017-11-04T22:03:37.670Z,11.78
2017-11-04T22:06:05.214Z,11.78
2017-11-04T22:08:32.769Z,11.77
2017-11-04T22:11:00.484Z,11.76
2017-11-04T22:13:28.025Z,11.74
2017-11-04T22:15:55.646Z,11.74
2017-11-04T22:18:23.220Z,11.76
2017-11-04T22:20:50.731Z,11.75
2017-11-04T22:23:18.224Z,11.76
2017-11-04T22:25:45.739Z,11.76
2017-11-04T22:28:14.830Z,11.74
2017-11-04T22:30:44.249Z,11.78
2017-11-04T22:33:11.972Z,11.79
2017-11-04T22:35:39.705Z,11.80
2017-11-04T22:38:09.514Z,11.80
2017-11-04T22:40:37.039Z,11.82
2017-11-04T22:43:04.757Z,11.83
2017-11-04T22:45:32.515Z,11.81
2017-11-04T22:47:59.999Z,11.80
2017-11-04T22:50:27.568Z,11.79
2017-11-04T22:52:55.111Z,11.78
2017-11-04T22:55:25.851Z,11.77
2017-11-04T22:57:54.299Z,11.79
2017-11-04T23:00:22.480Z,11.82
2017-11-04T23:02:50.553Z,11.82
2017-11-04T23:05:18.082Z,11.82
2017-11-04T23:07:45.647Z,11.78
2017-11-04T23:10:13.222Z,11.77
2017-11-04T23:12:40.773Z,11.78
2017-11-04T23:15:08.616Z,11.77
2017-11-04T23:17:36.202Z,11.75
2017-11-04T23:20:04.819Z,11.72
2017-11-04T23:22:32.365Z,11.72
2017-11-04T23:24:59.892Z,11.71
2017-11-04T23:27:27.474Z,11.70
2017-11-04T23:29:54.980Z,11.69
2017-11-04T23:32:22.520Z,11.70
2017-11-04T23:34:50.366Z,11.69
2017-11-04T23:37:17.913Z,11.65
2017-11-04T23:39:45.468Z,11.65
2017-11-04T23:42:12.942Z,11.64
2017-11-04T23:44:40.471Z,11.61
2017-11-04T23:47:07.948Z,11.59
2017-11-04T23:49:35.450Z,11.59
2017-11-04T23:52:02.985Z,11.56
2017-11-04T23:54:30.474Z,11.55
2017-11-04T23:56:57.978Z,11.55
2017-11-04T23:59:25.686Z,11.54
